Reduzum, Netherlands
Current Conditions -  °F | °C
As of 9:19 PM on Thursday 29 Jan 2015 (Local Time) from EHLW Reporting Station
Overcast Overcast  
Wind Chill: 30°   Ceiling: 400
Heat Index: 34°   Visibility: 6mi
Dew Point: 34°   Wind: 5mph
Humidity: 100%   Direction: 170°S
Pressure: 28.7"   Gusts: NA
Location:  53.12°N, 5.79°E
Report Text: EHLW 292019Z AUTO 17004KT 9999 OVC004 01/01 Q0972 YLO 24008KT 9999 SCT022 BKN050 TEMPO 27013G30KT 3000 SHRASN SCT006 SCT018CB BKN035
Loading
Personal Weather Stations






























Interactive Weather Map New forecast layout! Learn more

10-Day Weather Forecast

Advertisements
Track Severe Weather on mobile